Time;durP1;ratioP1;P1;durP2;ratioP2;P2;SDS_P1;SDS_P2;PMS_P1;PMS_P2;Temp;Humidity;BMP_temperature;BMP_pressure;BME280_temperature;BME280_humidity;BME280_pressure;Samples;Min_cycle;Max_cycle;Signal;HPM_P1;HPM_P2
2021/12/09 00:02:20;;;;;;;;;;;3.80;83.50;;;;;;5014830;28;19910;-83
2021/12/09 00:04:46;;;;;;;;;;;3.80;83.40;;;;;;5025515;28;20390;-82
2021/12/09 00:07:12;;;;;;;;;;;3.80;83.70;;;;;;5003551;28;20004;-83
2021/12/09 00:09:38;;;;;;;;;;;3.80;83.90;;;;;;5026936;28;20281;-83
2021/12/09 00:12:03;;;;;;;;;;;3.80;83.60;;;;;;5002093;28;19914;-83
2021/12/09 00:14:30;;;;;;;;;;;3.80;83.80;;;;;;5003641;28;19971;-83
2021/12/09 00:16:57;;;;;;;;;;;3.80;83.70;;;;;;5007157;28;19917;-83
2021/12/09 00:19:23;;;;;;;;;;;3.80;83.50;;;;;;5028739;28;20296;-83
2021/12/09 00:21:49;;;;;;;;;;;3.80;84.00;;;;;;5001147;28;20244;-83
2021/12/09 00:24:15;;;;;;;;;;;3.80;83.80;;;;;;5012283;28;20000;-83
2021/12/09 00:26:43;;;;;;;;;;;3.80;84.00;;;;;;5014692;28;20012;-83
2021/12/09 00:29:09;;;;;;;;;;;3.80;83.90;;;;;;5013442;28;19909;-83
2021/12/09 00:31:35;;;;;;;;;;;3.90;83.80;;;;;;4996180;28;19943;-83
2021/12/09 00:34:01;;;;;;;;;;;3.80;83.60;;;;;;4996355;28;19983;-83
2021/12/09 00:36:27;;;;;;;;;;;3.80;83.80;;;;;;5018893;28;19914;-82
2021/12/09 00:38:56;;;;;;;;;;;3.80;83.70;;;;;;5022757;28;20024;-82
2021/12/09 00:41:22;;;;;;;;;;;3.80;83.50;;;;;;5009629;28;19917;-83
2021/12/09 00:43:47;;;;;;;;;;;3.80;83.40;;;;;;5016939;28;19952;-84
2021/12/09 00:46:13;;;;;;;;;;;3.70;83.70;;;;;;5015861;28;19920;-83
2021/12/09 00:48:38;;;;;;;;;;;3.70;84.20;;;;;;5016032;28;19932;-83
2021/12/09 00:51:04;;;;;;;;;;;3.60;84.20;;;;;;5033538;28;19913;-83
2021/12/09 00:53:30;;;;;;;;;;;3.70;84.40;;;;;;5002451;28;20356;-82
2021/12/09 01:01:44;;;;;;;;;;;3.60;83.90;;;;;;5034285;28;19924;-88
2021/12/09 01:04:09;;;;;;;;;;;3.50;83.90;;;;;;5031119;28;19920;-88
2021/12/09 01:06:35;;;;;;;;;;;3.40;84.10;;;;;;5054597;28;20007;-88
2021/12/09 01:09:04;;;;;;;;;;;3.40;84.30;;;;;;5052432;28;19908;-87
2021/12/09 01:11:30;;;;;;;;;;;3.40;84.10;;;;;;5037449;28;20318;-87
2021/12/09 01:13:55;;;;;;;;;;;3.30;84.70;;;;;;5035404;28;19999;-87
2021/12/09 01:16:21;;;;;;;;;;;3.30;84.60;;;;;;5017673;28;19925;-88
2021/12/09 01:18:47;;;;;;;;;;;3.20;84.30;;;;;;5032728;28;19919;-87
2021/12/09 01:21:12;;;;;;;;;;;3.20;84.10;;;;;;5009228;28;19909;-88
2021/12/09 01:23:38;;;;;;;;;;;3.10;84.20;;;;;;5016514;28;19909;-88
2021/12/09 01:26:06;;;;;;;;;;;3.10;84.10;;;;;;5034004;28;19916;-88
2021/12/09 01:28:40;;;;;;;;;;;3.10;84.30;;;;;;5016221;28;19913;-87
2021/12/09 01:31:06;;;;;;;;;;;3.10;84.40;;;;;;5016938;28;19974;-88
2021/12/09 01:33:33;;;;;;;;;;;3.10;84.50;;;;;;5017150;28;20378;-88
2021/12/09 01:35:59;;;;;;;;;;;3.10;84.70;;;;;;5020670;28;19917;-87
2021/12/09 01:38:28;;;;;;;;;;;3.10;84.90;;;;;;5036117;28;19948;-87
2021/12/09 01:40:55;;;;;;;;;;;3.20;85.20;;;;;;5020482;28;19909;-88
2021/12/09 01:43:21;;;;;;;;;;;3.20;85.20;;;;;;5020115;28;19913;-88
2021/12/09 01:45:47;;;;;;;;;;;3.30;84.90;;;;;;5038324;28;19924;-87
2021/12/09 01:48:13;;;;;;;;;;;3.20;84.80;;;;;;5019381;28;19916;-87
2021/12/09 01:50:38;;;;;;;;;;;3.30;84.60;;;;;;5038764;28;19909;-86
2021/12/09 01:53:07;;;;;;;;;;;3.30;84.60;;;;;;5022545;28;19913;-87
2021/12/09 01:55:33;;;;;;;;;;;3.30;84.60;;;;;;5038458;28;20366;-87
2021/12/09 01:57:59;;;;;;;;;;;3.30;84.50;;;;;;5031913;28;19914;-88
2021/12/09 02:00:26;;;;;;;;;;;3.20;84.50;;;;;;5023676;28;20008;-87
2021/12/09 02:02:52;;;;;;;;;;;3.30;84.80;;;;;;5018844;28;19914;-87
2021/12/09 02:05:17;;;;;;;;;;;3.40;84.50;;;;;;5036502;28;19921;-87
2021/12/09 02:07:43;;;;;;;;;;;3.40;84.60;;;;;;5026608;28;19913;-88
2021/12/09 02:10:10;;;;;;;;;;;3.40;84.30;;;;;;5036739;28;20386;-87
2021/12/09 02:12:36;;;;;;;;;;;3.40;84.10;;;;;;5018907;28;19955;-88
2021/12/09 02:15:02;;;;;;;;;;;3.30;84.20;;;;;;5035482;28;19955;-87
2021/12/09 02:17:28;;;;;;;;;;;3.30;84.40;;;;;;5018614;28;19980;-87
2021/12/09 02:19:55;;;;;;;;;;;3.30;84.50;;;;;;5018295;28;19913;-87
2021/12/09 02:22:20;;;;;;;;;;;3.30;84.50;;;;;;5037459;28;19919;-87
2021/12/09 02:24:46;;;;;;;;;;;3.40;84.50;;;;;;5008538;28;20357;-87
2021/12/09 02:27:11;;;;;;;;;;;3.40;84.50;;;;;;5015542;28;19960;-87
2021/12/09 02:29:39;;;;;;;;;;;3.30;84.50;;;;;;5038439;28;19910;-88
2021/12/09 02:32:05;;;;;;;;;;;3.40;84.30;;;;;;5038377;28;20016;-88
2021/12/09 02:34:30;;;;;;;;;;;3.40;84.40;;;;;;5036402;28;19953;-88
2021/12/09 02:36:56;;;;;;;;;;;3.30;84.40;;;;;;5045354;28;19917;-88
2021/12/09 02:39:21;;;;;;;;;;;3.30;84.50;;;;;;5034464;28;19913;-88
2021/12/09 02:41:47;;;;;;;;;;;3.20;84.70;;;;;;5053049;28;19913;-88
2021/12/09 02:44:17;;;;;;;;;;;3.20;84.40;;;;;;5020827;28;19917;-88
2021/12/09 02:46:42;;;;;;;;;;;3.20;84.60;;;;;;5043200;28;19981;-88
2021/12/09 02:49:09;;;;;;;;;;;3.20;84.60;;;;;;5055570;28;19924;-88
2021/12/09 02:51:35;;;;;;;;;;;3.20;84.40;;;;;;5057399;28;19913;-88
2021/12/09 02:54:01;;;;;;;;;;;3.20;84.20;;;;;;5056852;28;20067;-88
2021/12/09 02:56:26;;;;;;;;;;;3.10;84.10;;;;;;5018443;28;19909;-88
2021/12/09 02:58:52;;;;;;;;;;;3.10;84.50;;;;;;5020303;28;19913;-88
2021/12/09 03:01:19;;;;;;;;;;;3.00;84.60;;;;;;5020661;28;20290;-88
2021/12/09 03:03:50;;;;;;;;;;;3.10;84.70;;;;;;5036087;28;19956;-88
2021/12/09 03:06:17;;;;;;;;;;;3.10;84.40;;;;;;5036936;28;19917;-88
2021/12/09 03:08:43;;;;;;;;;;;3.10;84.40;;;;;;5028326;28;19913;-88
2021/12/09 03:11:13;;;;;;;;;;;3.00;84.70;;;;;;5036340;28;19924;-88
2021/12/09 03:13:40;;;;;;;;;;;3.00;84.80;;;;;;5019173;28;19909;-88
2021/12/09 03:16:05;;;;;;;;;;;3.00;84.70;;;;;;5018600;28;19970;-88
2021/12/09 03:18:36;;;;;;;;;;;3.00;84.90;;;;;;5016640;28;19917;-88
2021/12/09 03:21:02;;;;;;;;;;;3.00;84.80;;;;;;5023662;28;19955;-86
2021/12/09 03:23:28;;;;;;;;;;;3.00;84.90;;;;;;5036246;28;19982;-88
2021/12/09 03:25:56;;;;;;;;;;;3.00;85.20;;;;;;5021033;28;19956;-88
2021/12/09 03:28:22;;;;;;;;;;;2.80;85.30;;;;;;5020195;28;19956;-88
2021/12/09 03:30:47;;;;;;;;;;;2.90;85.50;;;;;;5034394;28;19963;-88
2021/12/09 03:33:13;;;;;;;;;;;2.80;85.60;;;;;;5037080;28;19920;-88
2021/12/09 03:35:38;;;;;;;;;;;2.80;85.40;;;;;;5018530;28;19949;-88
2021/12/09 03:38:04;;;;;;;;;;;2.80;85.60;;;;;;5017926;28;19913;-88
2021/12/09 03:40:29;;;;;;;;;;;2.80;85.60;;;;;;5017920;28;19909;-88
2021/12/09 03:42:55;;;;;;;;;;;2.80;85.60;;;;;;5035854;28;19909;-88
2021/12/09 03:45:20;;;;;;;;;;;2.90;85.00;;;;;;5017974;28;20007;-88
2021/12/09 03:47:46;;;;;;;;;;;2.80;85.20;;;;;;5017516;28;20374;-88
2021/12/09 03:50:13;;;;;;;;;;;2.80;85.30;;;;;;5033201;28;20029;-88
2021/12/09 03:52:39;;;;;;;;;;;2.80;85.30;;;;;;5035868;28;20354;-88
2021/12/09 03:55:06;;;;;;;;;;;2.80;85.60;;;;;;5030351;28;19909;-88
2021/12/09 03:57:31;;;;;;;;;;;2.80;85.30;;;;;;5032984;28;20020;-88
2021/12/09 03:59:57;;;;;;;;;;;2.70;85.30;;;;;;5034489;28;19972;-88
2021/12/09 04:02:23;;;;;;;;;;;2.70;85.30;;;;;;5017010;28;19928;-88
2021/12/09 04:04:48;;;;;;;;;;;2.70;85.40;;;;;;5017062;28;19917;-88
2021/12/09 04:07:14;;;;;;;;;;;2.70;85.20;;;;;;5033567;28;19917;-88
2021/12/09 04:09:39;;;;;;;;;;;2.70;85.10;;;;;;5032240;28;19909;-87
2021/12/09 04:12:05;;;;;;;;;;;2.70;85.00;;;;;;5034442;28;19913;-87
2021/12/09 04:14:32;;;;;;;;;;;2.70;85.10;;;;;;5016118;28;19956;-88
2021/12/09 04:16:57;;;;;;;;;;;2.70;85.30;;;;;;5033892;28;19910;-88
2021/12/09 04:19:23;;;;;;;;;;;2.60;85.20;;;;;;5031977;28;19909;-87
2021/12/09 04:21:50;;;;;;;;;;;2.60;85.00;;;;;;5032457;28;19949;-87
2021/12/09 04:24:16;;;;;;;;;;;2.60;85.10;;;;;;5030153;28;19909;-87
2021/12/09 04:26:43;;;;;;;;;;;2.60;85.20;;;;;;5020035;28;20008;-87
2021/12/09 04:29:09;;;;;;;;;;;2.60;85.40;;;;;;5029534;28;20403;-88
2021/12/09 04:31:35;;;;;;;;;;;2.60;85.80;;;;;;5016093;28;19909;-88
2021/12/09 04:34:00;;;;;;;;;;;2.60;85.70;;;;;;5033709;28;19909;-88
2021/12/09 04:36:26;;;;;;;;;;;2.60;85.90;;;;;;5031985;28;19959;-88
2021/12/09 04:38:52;;;;;;;;;;;2.60;85.40;;;;;;5020846;28;20075;-88
2021/12/09 04:41:18;;;;;;;;;;;2.60;85.50;;;;;;5027593;28;19964;-88
2021/12/09 04:43:44;;;;;;;;;;;2.70;84.90;;;;;;5034662;28;19913;-87
2021/12/09 04:46:10;;;;;;;;;;;2.60;84.60;;;;;;5038939;28;19966;-88
2021/12/09 04:48:35;;;;;;;;;;;2.60;84.50;;;;;;5017377;28;20294;-87
2021/12/09 04:51:01;;;;;;;;;;;2.50;84.80;;;;;;5033474;28;19917;-88
2021/12/09 04:53:27;;;;;;;;;;;2.40;85.00;;;;;;5033752;28;19925;-88
2021/12/09 04:55:52;;;;;;;;;;;2.30;85.00;;;;;;5016075;28;19909;-88
2021/12/09 04:58:18;;;;;;;;;;;2.30;85.10;;;;;;5028579;28;19917;-88
2021/12/09 05:00:43;;;;;;;;;;;2.30;84.90;;;;;;5048221;28;19928;-86
2021/12/09 05:03:12;;;;;;;;;;;2.20;85.00;;;;;;5052842;28;19917;-88
2021/12/09 05:05:39;;;;;;;;;;;2.10;85.20;;;;;;5019375;28;19917;-88
2021/12/09 05:08:06;;;;;;;;;;;2.20;85.70;;;;;;5040668;28;19897;-88
2021/12/09 05:10:36;;;;;;;;;;;2.20;85.40;;;;;;5031092;28;19972;-87
2021/12/09 05:13:02;;;;;;;;;;;2.10;85.40;;;;;;5036534;28;19905;-88
2021/12/09 05:15:28;;;;;;;;;;;2.10;85.60;;;;;;5033878;28;20011;-88
2021/12/09 05:17:53;;;;;;;;;;;2.10;85.60;;;;;;5034401;28;19956;-88
2021/12/09 05:20:22;;;;;;;;;;;2.20;85.80;;;;;;5036896;28;20554;-88
2021/12/09 05:22:48;;;;;;;;;;;2.10;86.00;;;;;;5017508;28;19962;-88
2021/12/09 05:25:13;;;;;;;;;;;2.20;86.10;;;;;;5019661;28;20023;-89
2021/12/09 05:27:39;;;;;;;;;;;2.20;86.30;;;;;;5021525;28;19913;-88
2021/12/09 05:30:08;;;;;;;;;;;2.30;86.80;;;;;;5017394;28;19921;-88
2021/12/09 05:32:34;;;;;;;;;;;2.30;86.80;;;;;;5018580;28;19992;-88
2021/12/09 05:35:00;;;;;;;;;;;2.30;86.80;;;;;;5018427;28;19909;-88
2021/12/09 05:37:26;;;;;;;;;;;2.30;86.70;;;;;;5021059;28;19940;-88
2021/12/09 05:39:53;;;;;;;;;;;2.30;86.70;;;;;;5021828;28;19921;-88
2021/12/09 05:42:20;;;;;;;;;;;2.30;86.70;;;;;;5033857;28;19921;-88
2021/12/09 05:44:46;;;;;;;;;;;2.40;87.00;;;;;;5018105;28;20371;-88
2021/12/09 05:47:12;;;;;;;;;;;2.30;86.90;;;;;;5043505;28;19999;-88
2021/12/09 05:49:39;;;;;;;;;;;2.30;87.10;;;;;;5027913;28;19917;-88
2021/12/09 05:52:05;;;;;;;;;;;2.30;87.10;;;;;;5016553;28;19918;-89
2021/12/09 05:54:38;;;;;;;;;;;2.30;87.10;;;;;;5033012;28;19972;-92
2021/12/09 05:57:04;;;;;;;;;;;2.30;86.80;;;;;;5017417;28;19913;-92
2021/12/09 05:59:30;;;;;;;;;;;2.40;87.00;;;;;;5002726;28;19913;-90
2021/12/09 06:01:55;;;;;;;;;;;2.40;86.50;;;;;;5022745;28;19949;-88
2021/12/09 06:04:21;;;;;;;;;;;2.50;86.80;;;;;;5054956;28;20000;-88
2021/12/09 06:06:47;;;;;;;;;;;2.50;87.00;;;;;;5035017;28;19967;-87
2021/12/09 06:09:12;;;;;;;;;;;2.50;87.00;;;;;;5035729;28;19960;-86
2021/12/09 06:11:39;;;;;;;;;;;2.50;86.90;;;;;;5023722;28;19913;-87
2021/12/09 06:14:06;;;;;;;;;;;2.50;86.70;;;;;;5020942;28;19909;-86
2021/12/09 06:16:32;;;;;;;;;;;2.50;86.70;;;;;;5037338;28;19952;-86
2021/12/09 06:18:58;;;;;;;;;;;2.40;86.50;;;;;;5048175;23;20857;-82
2021/12/09 06:21:27;;;;;;;;;;;2.50;86.40;;;;;;5035135;28;19916;-83
2021/12/09 06:23:53;;;;;;;;;;;2.50;86.20;;;;;;5053486;28;20003;-82
2021/12/09 06:26:19;;;;;;;;;;;2.40;86.30;;;;;;5033607;28;20000;-83
2021/12/09 06:28:45;;;;;;;;;;;2.40;86.40;;;;;;5023867;28;20028;-83
2021/12/09 06:31:10;;;;;;;;;;;2.30;86.40;;;;;;5020890;28;19931;-84
2021/12/09 06:33:36;;;;;;;;;;;2.30;86.30;;;;;;5016304;28;19917;-83
2021/12/09 06:36:01;;;;;;;;;;;2.30;86.00;;;;;;5019540;28;20004;-83
2021/12/09 06:38:27;;;;;;;;;;;2.20;86.20;;;;;;5027880;28;20340;-84
2021/12/09 06:40:53;;;;;;;;;;;2.20;86.40;;;;;;5034096;28;19910;-85
2021/12/09 06:43:18;;;;;;;;;;;2.20;86.50;;;;;;5032902;28;19940;-82
2021/12/09 06:45:44;;;;;;;;;;;2.30;86.80;;;;;;5034598;28;19920;-82
2021/12/09 06:48:10;;;;;;;;;;;2.30;86.70;;;;;;5029719;28;19940;-82
2021/12/09 06:50:36;;;;;;;;;;;2.20;86.30;;;;;;5032388;28;19987;-82
2021/12/09 06:53:02;;;;;;;;;;;2.20;86.60;;;;;;5035900;28;19924;-83
2021/12/09 06:55:28;;;;;;;;;;;2.30;86.60;;;;;;5020257;28;19925;-83
2021/12/09 06:57:53;;;;;;;;;;;2.30;86.50;;;;;;5037603;28;19940;-81
2021/12/09 07:00:24;;;;;;;;;;;2.30;86.60;;;;;;5035305;28;19967;-82
2021/12/09 07:02:51;;;;;;;;;;;2.30;86.60;;;;;;5035471;28;19915;-83
2021/12/09 07:05:17;;;;;;;;;;;2.20;86.70;;;;;;5035792;28;19913;-82
2021/12/09 07:07:43;;;;;;;;;;;2.30;87.00;;;;;;5019012;28;19913;-83
2021/12/09 07:10:09;;;;;;;;;;;2.30;87.10;;;;;;5030351;28;20067;-82
2021/12/09 07:12:36;;;;;;;;;;;2.30;86.70;;;;;;5029525;28;19956;-83
2021/12/09 07:15:03;;;;;;;;;;;2.30;86.80;;;;;;5035374;28;20016;-82
2021/12/09 07:17:28;;;;;;;;;;;2.30;86.60;;;;;;5015966;28;20317;-83
2021/12/09 07:19:54;;;;;;;;;;;2.40;86.60;;;;;;5033254;28;19924;-81
2021/12/09 07:22:19;;;;;;;;;;;2.40;86.40;;;;;;5034780;28;19920;-82
2021/12/09 07:24:45;;;;;;;;;;;2.30;86.50;;;;;;5011227;28;19960;-83
2021/12/09 07:27:10;;;;;;;;;;;2.30;86.90;;;;;;5029949;28;19913;-82
2021/12/09 07:29:36;;;;;;;;;;;2.30;86.70;;;;;;5032459;28;19917;-83
2021/12/09 07:32:02;;;;;;;;;;;2.30;86.70;;;;;;5033808;28;19968;-85
2021/12/09 07:34:27;;;;;;;;;;;2.30;86.80;;;;;;5035340;28;19916;-84
2021/12/09 07:36:53;;;;;;;;;;;2.30;86.70;;;;;;5035030;28;19917;-84
2021/12/09 07:39:18;;;;;;;;;;;2.30;86.50;;;;;;5033765;28;19921;-83
2021/12/09 07:41:44;;;;;;;;;;;2.20;86.90;;;;;;5032889;28;19913;-84
2021/12/09 07:44:10;;;;;;;;;;;2.30;87.10;;;;;;5030316;28;20000;-85
2021/12/09 07:46:36;;;;;;;;;;;2.30;87.00;;;;;;5032695;28;20397;-83
2021/12/09 07:49:01;;;;;;;;;;;2.30;87.20;;;;;;5030920;28;19924;-85
2021/12/09 07:51:27;;;;;;;;;;;2.40;87.00;;;;;;5011557;28;19917;-84
2021/12/09 07:53:53;;;;;;;;;;;2.40;86.90;;;;;;5034993;28;19909;-84
2021/12/09 07:56:18;;;;;;;;;;;2.50;86.50;;;;;;5017707;28;19929;-84
2021/12/09 07:58:44;;;;;;;;;;;2.50;86.40;;;;;;5016520;28;19924;-84
2021/12/09 08:01:10;;;;;;;;;;;2.40;86.40;;;;;;5033678;28;19920;-82
2021/12/09 08:03:38;;;;;;;;;;;2.50;86.70;;;;;;5012667;28;22509;-84
2021/12/09 08:06:04;;;;;;;;;;;2.50;86.50;;;;;;5034991;28;19982;-84
2021/12/09 08:08:29;;;;;;;;;;;2.50;86.40;;;;;;5038552;28;19952;-82
2021/12/09 08:10:55;;;;;;;;;;;2.50;86.60;;;;;;5015760;28;19924;-83
2021/12/09 08:13:22;;;;;;;;;;;2.50;86.60;;;;;;5042113;28;19949;-82
2021/12/09 08:15:50;;;;;;;;;;;2.50;86.80;;;;;;5027019;28;20260;-82
2021/12/09 08:20:48;;;;;;;;;;;2.50;86.40;;;;;;5023220;28;19980;-82
2021/12/09 08:23:14;;;;;;;;;;;2.60;86.70;;;;;;5025447;28;20015;-81
2021/12/09 08:25:40;;;;;;;;;;;2.60;86.70;;;;;;5033212;28;22165;-82
2021/12/09 08:28:06;;;;;;;;;;;2.70;86.60;;;;;;5048243;23;19924;-87
2021/12/09 08:30:32;;;;;;;;;;;2.70;86.50;;;;;;5029146;28;20032;-86
2021/12/09 08:32:57;;;;;;;;;;;2.80;86.70;;;;;;5031073;28;20346;-84
2021/12/09 08:35:23;;;;;;;;;;;2.90;86.50;;;;;;5032178;28;19948;-85
2021/12/09 08:37:50;;;;;;;;;;;2.90;86.50;;;;;;5029610;28;19936;-86
2021/12/09 08:40:16;;;;;;;;;;;2.90;86.20;;;;;;5020797;28;19917;-83
2021/12/09 08:42:42;;;;;;;;;;;3.00;86.30;;;;;;5036216;28;19916;-85
2021/12/09 08:45:10;;;;;;;;;;;3.00;86.30;;;;;;5033398;28;19921;-85
2021/12/09 08:47:40;;;;;;;;;;;3.00;86.00;;;;;;5039611;28;20316;-84
2021/12/09 08:50:06;;;;;;;;;;;3.20;85.80;;;;;;5037150;28;19933;-84
2021/12/09 08:52:32;;;;;;;;;;;3.20;85.70;;;;;;5037277;28;19955;-84
2021/12/09 08:54:57;;;;;;;;;;;3.30;85.60;;;;;;5036357;28;20378;-84
2021/12/09 08:57:23;;;;;;;;;;;3.30;85.50;;;;;;5030727;28;19918;-84
2021/12/09 08:59:48;;;;;;;;;;;3.40;85.20;;;;;;5023248;28;19913;-84
2021/12/09 09:02:14;;;;;;;;;;;3.40;85.20;;;;;;5041701;28;19956;-84
2021/12/09 09:04:40;;;;;;;;;;;3.50;84.90;;;;;;5037754;28;19913;-85
2021/12/09 09:07:23;;;;;;;;;;;3.60;84.80;;;;;;5042334;28;19917;-85
2021/12/09 09:09:49;;;;;;;;;;;3.60;84.60;;;;;;5043269;28;19910;-85
2021/12/09 09:12:16;;;;;;;;;;;3.70;84.30;;;;;;5041060;28;20341;-85
2021/12/09 09:14:42;;;;;;;;;;;3.70;84.40;;;;;;5037654;28;19913;-83
2021/12/09 09:17:08;;;;;;;;;;;3.60;84.20;;;;;;5037548;28;19940;-85
2021/12/09 09:19:33;;;;;;;;;;;3.70;84.10;;;;;;5033455;28;19963;-84
2021/12/09 09:21:59;;;;;;;;;;;3.70;84.50;;;;;;5036527;28;19983;-84
2021/12/09 09:24:24;;;;;;;;;;;3.70;84.10;;;;;;5033379;28;19909;-84
2021/12/09 09:26:49;;;;;;;;;;;3.80;84.10;;;;;;5036203;28;19909;-84
2021/12/09 09:29:15;;;;;;;;;;;3.90;83.90;;;;;;5038941;28;19957;-84
2021/12/09 09:31:42;;;;;;;;;;;4.10;82.80;;;;;;5041167;28;19967;-83
2021/12/09 09:34:08;;;;;;;;;;;4.10;82.70;;;;;;5043445;28;20382;-84
2021/12/09 09:36:33;;;;;;;;;;;4.10;83.00;;;;;;5032060;28;19913;-84
2021/12/09 09:39:06;;;;;;;;;;;4.10;82.60;;;;;;5022666;28;19914;-84
2021/12/09 09:41:35;;;;;;;;;;;4.20;82.60;;;;;;5023731;28;19933;-84
2021/12/09 09:44:12;;;;;;;;;;;4.30;81.70;;;;;;5036692;28;19952;-84
2021/12/09 09:46:38;;;;;;;;;;;4.20;82.00;;;;;;5038436;28;20330;-84
2021/12/09 09:49:05;;;;;;;;;;;4.30;81.70;;;;;;5038066;28;19913;-85
2021/12/09 09:51:30;;;;;;;;;;;4.30;81.70;;;;;;5036873;28;19936;-84
2021/12/09 09:53:56;;;;;;;;;;;4.30;81.60;;;;;;5035123;28;19921;-85
2021/12/09 09:56:23;;;;;;;;;;;4.40;81.40;;;;;;5037969;28;19910;-86
2021/12/09 09:58:55;;;;;;;;;;;4.50;81.20;;;;;;5036125;28;19924;-86
2021/12/09 10:01:21;;;;;;;;;;;4.30;81.50;;;;;;5036419;28;19944;-84
2021/12/09 10:03:47;;;;;;;;;;;4.40;81.60;;;;;;5029542;28;20433;-86
2021/12/09 10:06:14;;;;;;;;;;;4.50;81.70;;;;;;5039617;28;20383;-86
2021/12/09 10:08:39;;;;;;;;;;;4.60;81.00;;;;;;5050149;28;19966;-86
2021/12/09 10:11:05;;;;;;;;;;;4.70;81.00;;;;;;5058876;28;19913;-85
2021/12/09 10:13:33;;;;;;;;;;;4.70;80.90;;;;;;5055854;28;19921;-85
2021/12/09 10:16:00;;;;;;;;;;;4.80;80.60;;;;;;5040291;28;19920;-86
2021/12/09 10:18:37;;;;;;;;;;;5.00;80.20;;;;;;5036609;28;19936;-88
2021/12/09 10:21:04;;;;;;;;;;;4.90;80.20;;;;;;5032345;28;19913;-85
2021/12/09 10:23:34;;;;;;;;;;;5.00;80.10;;;;;;5036382;28;20244;-85
2021/12/09 10:26:20;;;;;;;;;;;5.10;80.30;;;;;;5044186;28;19913;-86
2021/12/09 10:29:03;;;;;;;;;;;5.10;80.40;;;;;;5024453;28;19951;-87
2021/12/09 10:31:30;;;;;;;;;;;5.10;80.70;;;;;;5033353;28;20367;-88
2021/12/09 10:34:03;;;;;;;;;;;5.30;80.10;;;;;;5033891;28;19913;-87
2021/12/09 10:36:42;;;;;;;;;;;5.50;79.70;;;;;;5033669;28;20346;-86
2021/12/09 10:39:25;;;;;;;;;;;5.50;79.10;;;;;;5036826;28;19924;-86
2021/12/09 10:41:51;;;;;;;;;;;5.40;78.90;;;;;;5032776;28;19928;-87
2021/12/09 10:44:16;;;;;;;;;;;5.50;79.20;;;;;;5045310;28;19916;-86
2021/12/09 10:46:48;;;;;;;;;;;5.50;79.30;;;;;;5038105;28;19923;-87
2021/12/09 10:49:14;;;;;;;;;;;5.40;79.30;;;;;;5033027;28;19960;-86
2021/12/09 10:51:45;;;;;;;;;;;5.40;79.30;;;;;;5019332;28;19913;-86
2021/12/09 10:54:10;;;;;;;;;;;5.30;79.10;;;;;;5029254;28;19996;-86
2021/12/09 10:56:36;;;;;;;;;;;5.40;79.70;;;;;;5036053;28;19955;-84
2021/12/09 10:59:02;;;;;;;;;;;5.50;79.80;;;;;;5043410;28;19952;-84
2021/12/09 11:01:28;;;;;;;;;;;5.60;78.80;;;;;;5041460;28;19917;-85
2021/12/09 11:03:54;;;;;;;;;;;5.60;79.00;;;;;;5043270;28;19943;-85
2021/12/09 11:06:29;;;;;;;;;;;5.40;78.80;;;;;;5036068;28;19913;-86
2021/12/09 11:08:55;;;;;;;;;;;5.40;79.10;;;;;;5035044;28;19921;-85
2021/12/09 11:11:33;;;;;;;;;;;5.60;79.10;;;;;;5031241;28;19987;-88
2021/12/09 11:14:11;;;;;;;;;;;5.50;79.30;;;;;;5039408;28;19971;-85
2021/12/09 11:16:39;;;;;;;;;;;5.40;79.20;;;;;;5033778;28;19925;-89
2021/12/09 11:19:19;;;;;;;;;;;5.50;79.10;;;;;;5048611;28;20379;-88
2021/12/09 11:21:55;;;;;;;;;;;5.50;79.20;;;;;;5049770;28;19944;-88
2021/12/09 11:28:05;;;;;;;;;;;5.50;79.50;;;;;;4974773;28;19925;-87
2021/12/09 11:30:33;;;;;;;;;;;5.60;78.70;;;;;;4951496;28;19918;-87
2021/12/09 11:32:59;;;;;;;;;;;5.60;79.10;;;;;;5007471;28;19913;-86
2021/12/09 11:35:27;;;;;;;;;;;5.60;78.90;;;;;;5038008;28;20365;-85
2021/12/09 11:38:06;;;;;;;;;;;5.70;78.70;;;;;;5027491;28;20302;-86
2021/12/09 11:40:38;;;;;;;;;;;5.70;79.30;;;;;;5048271;28;20405;-88
2021/12/09 11:43:06;;;;;;;;;;;5.70;79.10;;;;;;5032080;28;19920;-87
2021/12/09 11:45:39;;;;;;;;;;;5.80;78.50;;;;;;5021346;28;19910;-89
2021/12/09 11:48:06;;;;;;;;;;;5.70;78.40;;;;;;5034306;28;19964;-88
2021/12/09 11:50:32;;;;;;;;;;;5.70;78.50;;;;;;5032786;28;19909;-88
2021/12/09 11:52:59;;;;;;;;;;;5.80;78.00;;;;;;5034238;28;20338;-88
2021/12/09 11:55:40;;;;;;;;;;;5.90;77.90;;;;;;5033171;28;19913;-88
2021/12/09 11:58:13;;;;;;;;;;;6.00;77.80;;;;;;5032745;28;19913;-89
2021/12/09 12:12:20;;;;;;;;;;;5.90;77.20;;;;;;5033722;28;20019;-88
2021/12/09 12:14:49;;;;;;;;;;;5.80;77.80;;;;;;5037921;28;19909;-87
2021/12/09 12:17:23;;;;;;;;;;;5.90;77.60;;;;;;5027425;28;20309;-87
2021/12/09 12:22:49;;;;;;;;;;;5.90;76.90;;;;;;5032613;28;20252;-86
2021/12/09 12:33:27;;;;;;;;;;;5.60;78.10;;;;;;5043622;28;19916;-87
2021/12/09 12:36:05;;;;;;;;;;;5.80;78.10;;;;;;5044750;28;19914;-85
2021/12/09 12:38:37;;;;;;;;;;;5.80;78.20;;;;;;5035451;28;19921;-86
2021/12/09 12:41:14;;;;;;;;;;;5.90;77.80;;;;;;5035993;28;19909;-85
2021/12/09 12:43:59;;;;;;;;;;;6.00;77.30;;;;;;5036928;28;19917;-88
2021/12/09 12:46:52;;;;;;;;;;;5.90;77.60;;;;;;5040749;28;19996;-85
2021/12/09 12:49:32;;;;;;;;;;;5.90;78.10;;;;;;5036265;28;20138;-86
2021/12/09 12:52:06;;;;;;;;;;;6.00;77.80;;;;;;5035487;28;19917;-86
2021/12/09 12:54:56;;;;;;;;;;;6.00;77.10;;;;;;5036608;28;19917;-87
2021/12/09 12:57:43;;;;;;;;;;;6.00;77.20;;;;;;5029374;28;19913;-85
2021/12/09 13:00:16;;;;;;;;;;;6.10;76.70;;;;;;5037811;28;19966;-87
2021/12/09 13:11:02;;;;;;;;;;;5.80;77.10;;;;;;5035801;28;19932;-87
2021/12/09 13:16:37;;;;;;;;;;;5.70;78.10;;;;;;5035664;28;19916;-86
2021/12/09 13:19:07;;;;;;;;;;;6.00;77.20;;;;;;5033376;28;19913;-86
2021/12/09 13:21:32;;;;;;;;;;;6.00;77.30;;;;;;5033856;28;20003;-88
2021/12/09 13:24:17;;;;;;;;;;;5.90;77.70;;;;;;5033962;28;19944;-87
2021/12/09 13:27:07;;;;;;;;;;;5.90;77.70;;;;;;5034802;28;19913;-88
2021/12/09 13:30:05;;;;;;;;;;;6.00;77.10;;;;;;5017732;28;20016;-87
2021/12/09 13:32:47;;;;;;;;;;;5.90;77.20;;;;;;5040428;28;19909;-87
2021/12/09 13:35:19;;;;;;;;;;;6.00;77.50;;;;;;5040003;28;19913;-87
2021/12/09 13:38:41;;;;;;;;;;;6.00;77.60;;;;;;5025855;28;19913;-87
2021/12/09 13:46:25;;;;;;;;;;;5.90;77.90;;;;;;5040399;28;19916;-88
2021/12/09 13:51:55;;;;;;;;;;;6.10;76.90;;;;;;5028223;28;19960;-87
2021/12/09 13:54:25;;;;;;;;;;;6.00;77.00;;;;;;5039512;28;19921;-89
2021/12/09 13:56:58;;;;;;;;;;;5.80;77.40;;;;;;5047247;28;19913;-88
2021/12/09 13:59:27;;;;;;;;;;;5.70;78.10;;;;;;5039078;28;19942;-88
2021/12/09 14:01:53;;;;;;;;;;;5.60;78.20;;;;;;5026469;28;19913;-84
2021/12/09 14:04:21;;;;;;;;;;;5.70;78.00;;;;;;5033935;28;20442;-84
2021/12/09 14:06:55;;;;;;;;;;;5.80;78.50;;;;;;5038697;28;20382;-84
2021/12/09 14:09:20;;;;;;;;;;;5.60;78.00;;;;;;5037787;28;20400;-85
2021/12/09 14:11:49;;;;;;;;;;;5.60;78.50;;;;;;5038657;28;19953;-84
2021/12/09 14:14:18;;;;;;;;;;;5.80;78.40;;;;;;5038394;28;19932;-83
2021/12/09 14:16:55;;;;;;;;;;;5.70;78.40;;;;;;5039629;28;19923;-84
2021/12/09 14:21:48;;;;;;;;;;;5.60;78.60;;;;;;5041596;28;19917;-84
2021/12/09 14:24:16;;;;;;;;;;;5.70;78.20;;;;;;5038261;28;19916;-84
2021/12/09 14:26:48;;;;;;;;;;;5.60;78.50;;;;;;5043923;28;19960;-84
2021/12/09 14:29:14;;;;;;;;;;;5.70;78.70;;;;;;5041947;28;19917;-84
2021/12/09 14:31:44;;;;;;;;;;;5.70;78.40;;;;;;5044073;28;19909;-84
2021/12/09 14:34:10;;;;;;;;;;;5.80;78.30;;;;;;5036048;28;19917;-84
2021/12/09 14:36:35;;;;;;;;;;;5.70;78.80;;;;;;5039119;28;19913;-84
2021/12/09 14:39:04;;;;;;;;;;;5.60;78.80;;;;;;5039572;28;19917;-84
2021/12/09 14:41:30;;;;;;;;;;;5.50;79.10;;;;;;5040350;28;20568;-84
2021/12/09 14:43:55;;;;;;;;;;;5.50;79.10;;;;;;5044584;28;19909;-84
2021/12/09 14:46:24;;;;;;;;;;;5.50;79.50;;;;;;5043074;28;19913;-85
2021/12/09 14:48:51;;;;;;;;;;;5.60;79.40;;;;;;5038604;28;19921;-84
2021/12/09 14:51:21;;;;;;;;;;;5.50;79.20;;;;;;5040290;28;19917;-84
2021/12/09 14:54:06;;;;;;;;;;;5.40;79.30;;;;;;5040134;28;20024;-84
2021/12/09 14:56:34;;;;;;;;;;;5.30;79.60;;;;;;5043199;28;19921;-84
2021/12/09 14:59:16;;;;;;;;;;;5.40;80.10;;;;;;5036550;28;19917;-85
2021/12/09 15:01:43;;;;;;;;;;;5.20;80.10;;;;;;5036116;28;19914;-84
2021/12/09 15:04:16;;;;;;;;;;;5.30;79.90;;;;;;5041375;28;19928;-84
2021/12/09 15:06:45;;;;;;;;;;;5.30;79.60;;;;;;5045264;28;19995;-85
2021/12/09 15:09:15;;;;;;;;;;;5.20;80.10;;;;;;5039609;28;19932;-82
2021/12/09 15:11:42;;;;;;;;;;;5.30;80.10;;;;;;5041450;28;19917;-84
2021/12/09 15:14:25;;;;;;;;;;;5.30;80.00;;;;;;5040863;28;19924;-84
2021/12/09 15:17:11;;;;;;;;;;;5.30;80.00;;;;;;5037512;28;20009;-84
2021/12/09 15:19:39;;;;;;;;;;;5.30;80.10;;;;;;5030392;28;19921;-85
2021/12/09 15:22:11;;;;;;;;;;;5.20;80.40;;;;;;5036909;28;19913;-85
2021/12/09 15:24:38;;;;;;;;;;;5.30;80.70;;;;;;5035716;28;19917;-85
2021/12/09 15:27:03;;;;;;;;;;;5.10;80.80;;;;;;5037655;28;19912;-85
2021/12/09 15:29:29;;;;;;;;;;;5.20;80.90;;;;;;5036913;28;19939;-84
2021/12/09 15:31:58;;;;;;;;;;;5.10;80.90;;;;;;5042731;28;20300;-85
2021/12/09 15:34:25;;;;;;;;;;;5.20;81.00;;;;;;5046320;28;20350;-85